createdAt,value
2022-11-29T00:01:39.861Z,101296.91
2022-11-29T00:04:07.787Z,101294.31
2022-11-29T00:06:36.196Z,101297.22
2022-11-29T00:09:07.726Z,101296.28
2022-11-29T00:11:56.186Z,101291.06
2022-11-29T00:14:24.919Z,101296.25
2022-11-29T00:16:56.204Z,101291.91
2022-11-29T00:19:23.889Z,101291.28
2022-11-29T00:21:51.445Z,101300.38
2022-11-29T00:24:19.300Z,101295.97
2022-11-29T00:26:46.985Z,101296.53
2022-11-29T00:29:14.636Z,101298.31
2022-11-29T00:31:43.358Z,101287.19
2022-11-29T00:34:12.317Z,101296.34
2022-11-29T00:36:40.545Z,101294.53
2022-11-29T00:39:11.817Z,101292.75
2022-11-29T00:41:40.389Z,101293.81
2022-11-29T00:44:09.140Z,101297.97
2022-11-29T00:46:37.417Z,101297.97
2022-11-29T00:49:05.788Z,101296.34
2022-11-29T00:51:34.178Z,101294.16
2022-11-29T00:54:01.820Z,101285.66
2022-11-29T00:56:29.820Z,101293.00
2022-11-29T00:58:57.695Z,101294.19
2022-11-29T01:01:25.453Z,101289.25
2022-11-29T01:03:53.147Z,101286.84
2022-11-29T01:06:21.152Z,101294.41
2022-11-29T01:08:49.622Z,101286.28
2022-11-29T01:11:23.405Z,101290.81
2022-11-29T01:13:54.876Z,101286.47
2022-11-29T01:16:23.034Z,101286.88
2022-11-29T01:18:52.216Z,101284.47
2022-11-29T01:21:21.927Z,101283.69
2022-11-29T01:23:51.602Z,101285.47
2022-11-29T01:26:22.781Z,101275.34
2022-11-29T01:28:52.316Z,101276.72
2022-11-29T01:31:26.036Z,101276.53
2022-11-29T01:33:55.538Z,101276.53
2022-11-29T01:36:24.233Z,101275.34
2022-11-29T01:38:52.519Z,101277.31
2022-11-29T01:41:23.363Z,101276.34
2022-11-29T01:44:26.119Z,101273.34
2022-11-29T01:46:54.493Z,101274.16
2022-11-29T01:49:44.212Z,101269.59
2022-11-29T01:52:22.144Z,101266.22
2022-11-29T01:54:55.455Z,101270.19
2022-11-29T01:57:23.314Z,101272.19
2022-11-29T01:59:56.448Z,101265.41
2022-11-29T02:02:33.313Z,101256.47
2022-11-29T02:05:03.379Z,101259.44
2022-11-29T02:07:31.614Z,101256.47
2022-11-29T02:09:59.325Z,101256.28
2022-11-29T02:13:10.311Z,101254.69
2022-11-29T02:15:49.536Z,101249.31
2022-11-29T02:19:19.174Z,101259.44
2022-11-29T02:21:58.287Z,101255.03
2022-11-29T02:25:03.308Z,101250.69
2022-11-29T02:31:34.164Z,101259.31
2022-11-29T02:34:39.475Z,101255.62
2022-11-29T02:37:31.331Z,101258.81
2022-11-29T02:40:28.800Z,101248.72
2022-11-29T02:43:15.429Z,101253.87
2022-11-29T02:45:53.912Z,101253.03
2022-11-29T02:49:01.118Z,101257.44
2022-11-29T02:51:56.961Z,101258.62
2022-11-29T02:54:48.196Z,101257.75
2022-11-29T02:57:37.316Z,101260.41
2022-11-29T03:00:13.766Z,101260.25
2022-11-29T03:03:03.941Z,101262.19
2022-11-29T03:05:50.150Z,101273.19
2022-11-29T03:08:47.106Z,101265.78
2022-11-29T03:11:25.838Z,101270.13
2022-11-29T03:14:26.792Z,101264.56
2022-11-29T03:16:57.082Z,101267.75
2022-11-29T03:20:07.794Z,101268.06
2022-11-29T03:22:38.380Z,101266.56
2022-11-29T03:25:09.175Z,101261.38
2022-11-29T03:27:43.747Z,101261.88
2022-11-29T03:30:15.922Z,101264.72
2022-11-29T03:32:49.631Z,101260.16
2022-11-29T03:35:32.626Z,101256.22
2022-11-29T03:38:13.117Z,101256.34
2022-11-29T03:41:15.767Z,101250.28
2022-11-29T03:43:49.330Z,101258.94
2022-11-29T03:46:54.754Z,101260.75
2022-11-29T03:49:47.779Z,101255.41
2022-11-29T03:52:32.362Z,101264.34
2022-11-29T03:55:08.993Z,101259.44
2022-11-29T03:58:05.804Z,101260.81
2022-11-29T04:00:45.930Z,101265.00
2022-11-29T04:03:49.845Z,101265.00
2022-11-29T04:06:46.283Z,101272.53
2022-11-29T04:09:20.377Z,101274.69
2022-11-29T04:11:58.943Z,101267.75
2022-11-29T04:15:00.838Z,101276.88
2022-11-29T04:17:47.356Z,101271.16
2022-11-29T04:20:40.381Z,101269.72
2022-11-29T04:23:27.727Z,101272.72
2022-11-29T04:26:19.970Z,101277.91
2022-11-29T04:29:05.925Z,101270.56
2022-11-29T04:32:02.655Z,101280.03
2022-11-29T04:34:56.484Z,101280.00
2022-11-29T04:37:51.658Z,101278.22
2022-11-29T04:40:37.432Z,101276.66
2022-11-29T04:43:14.163Z,101274.88
2022-11-29T04:45:47.604Z,101278.09
2022-11-29T04:48:30.687Z,101278.09
2022-11-29T04:51:33.634Z,101281.94
2022-11-29T04:54:26.201Z,101287.66
2022-11-29T04:57:21.496Z,101285.50
2022-11-29T05:00:09.969Z,101281.06
2022-11-29T05:03:27.079Z,101281.56
2022-11-29T05:06:07.802Z,101278.22
2022-11-29T05:08:49.330Z,101278.63
2022-11-29T05:12:00.057Z,101289.25
2022-11-29T05:14:43.909Z,101280.87
2022-11-29T05:17:23.857Z,101286.28
2022-11-29T05:20:03.904Z,101283.56
2022-11-29T05:22:34.505Z,101288.25
2022-11-29T05:25:34.883Z,101288.41
2022-11-29T05:28:11.705Z,101290.75
2022-11-29T05:31:00.872Z,101289.62
2022-11-29T05:33:53.268Z,101286.91
2022-11-29T05:36:39.993Z,101286.38
2022-11-29T05:39:15.388Z,101284.00
2022-11-29T05:42:08.547Z,101282.75
2022-11-29T05:44:49.028Z,101281.81
2022-11-29T05:47:40.207Z,101288.66
2022-11-29T05:50:21.699Z,101290.56
2022-11-29T05:53:23.615Z,101287.91
2022-11-29T05:56:05.172Z,101288.97
2022-11-29T05:58:54.414Z,101292.56
2022-11-29T06:01:29.653Z,101294.84
2022-11-29T06:04:15.196Z,101292.06
2022-11-29T06:07:11.220Z,101295.00
2022-11-29T06:09:48.282Z,101296.09
2022-11-29T06:12:21.556Z,101302.16
2022-11-29T06:15:18.705Z,101299.25
2022-11-29T06:18:25.389Z,101306.28
2022-11-29T06:21:24.026Z,101309.41
2022-11-29T06:24:30.960Z,101310.69
2022-11-29T06:27:02.409Z,101314.22
2022-11-29T06:29:43.531Z,101304.87
2022-11-29T06:32:25.294Z,101306.41
2022-11-29T06:35:07.648Z,101306.69
2022-11-29T06:37:38.848Z,101311.09
2022-11-29T06:40:10.632Z,101317.59
2022-11-29T06:42:38.574Z,101311.41
2022-11-29T06:45:06.834Z,101316.88
2022-11-29T06:47:49.178Z,101312.06
2022-11-29T06:50:29.217Z,101318.13
